Latest Weather Observations for Lord Howe Island Windy Point

IDN60801

Issued at 2:53 am EDT Friday 29 January 2021 (issued every 10 minutes, with the page automatically refreshed every 10 minutes)

About weather observations | Map of weather stations | Latest weather observations for NSW | Other Formats
Station Details ID: 200715 Name: LORD HOWE ISLAND WINDY POINT Lat: -31.54 Lon: 159.07 Height: 4.0 m
Data from the previous 72 hours. | See also: Recent months at Lord Howe Island Windy Point
Date/Time
EDT
Temp
°C
App
Temp
°C
Dew
Point
°C
Rel
Hum
%
Delta-T
°C
Wind Press
QNH
hPa
Press
MSL
hPa
Rain since
9am
mm
Dir  Spd
km/h
Gust
km/h
Spd
kts
Gust
kts
29/02:30am - - - - - ESE 35 57 19 31 - - -
29/02:06am - - - - - ESE 41 59 22 32 - - -
29/02:00am - - - - - ESE 46 59 25 32 - - -
29/01:50am - - - - - ESE 43 61 23 33 - - -
29/01:30am - - - - - ESE 44 59 24 32 - - -
29/01:15am - - - - - ESE 43 61 23 33 - - -
29/01:00am - - - - - ESE 46 59 25 32 - - -
29/12:41am - - - - - ESE 39 57 21 31 - - -
29/12:30am - - - - - ESE 44 57 24 31 - - -
29/12:00am - - - - - ESE 43 54 23 29 - - -
 
Date/Time
EDT
Temp
°C
App
Temp
°C
Dew
Point
°C
Rel
Hum
%
Delta-T
°C
Wind Press
QNH
hPa
Press
MSL
hPa
Rain since
9am
mm
Dir  Spd
km/h
Gust
km/h
Spd
kts
Gust
kts
28/11:30pm - - - - - ESE 43 57 23 31 - - -
28/11:06pm - - - - - ESE 41 59 22 32 - - -
28/11:00pm - - - - - ESE 37 54 20 29 - - -
28/10:40pm - - - - - ESE 41 61 22 33 - - -
28/10:30pm - - - - - ESE 39 54 21 29 - - -
28/10:00pm - - - - - ESE 44 57 24 31 - - -
28/09:30pm - - - - - ESE 32 48 17 26 - - -
28/09:04pm - - - - - ESE 32 50 17 27 - - -
28/09:00pm - - - - - ESE 32 43 17 23 - - -
28/08:30pm - - - - - ESE 24 37 13 20 - - -
28/08:00pm - - - - - ESE 22 33 12 18 - - -
28/07:30pm - - - - - ESE 24 37 13 20 - - -
28/07:00pm - - - - - ESE 24 41 13 22 - - -
28/06:30pm - - - - - ESE 24 35 13 19 - - -
28/06:00pm - - - - - ESE 24 33 13 18 - - -
28/05:30pm - - - - - ESE 28 39 15 21 - - -
28/05:00pm - - - - - ESE 28 39 15 21 - - -
28/04:30pm - - - - - ESE 26 39 14 21 - - -
28/04:00pm - - - - - ESE 24 35 13 19 - - -
28/03:30pm - - - - - ESE 17 28 9 15 - - -
28/03:00pm - - - - - E 22 30 12 16 - - -
28/02:30pm - - - - - E 22 32 12 17 - - -
28/02:00pm - - - - - E 24 33 13 18 - - -
28/01:30pm - - - - - E 24 33 13 18 - - -
28/01:00pm - - - - - E 22 28 12 15 - - -
28/12:30pm - - - - - E 24 32 13 17 - - -
28/12:00pm - - - - - E 22 28 12 15 - - -
28/11:30am - - - - - E 22 28 12 15 - - -
28/11:00am - - - - - E 20 24 11 13 - - -
28/10:30am - - - - - E 20 26 11 14 - - -
28/10:00am - - - - - E 24 30 13 16 - - -
28/09:30am - - - - - E 24 30 13 16 - - -
28/09:00am - - - - - ESE 22 28 12 15 - - -
28/08:30am - - - - - E 22 26 12 14 - - -
28/08:00am - - - - - ESE 20 28 11 15 - - -
28/07:30am - - - - - ESE 20 28 11 15 - - -
28/07:00am - - - - - ESE 20 26 11 14 - - -
28/06:30am - - - - - ESE 15 20 8 11 - - -
28/06:00am - - - - - ESE 13 20 7 11 - - -
28/05:30am - - - - - E 15 20 8 11 - - -
28/05:00am - - - - - ENE 11 13 6 7 - - -
28/04:30am - - - - - ENE 11 15 6 8 - - -
28/04:00am - - - - - E 13 19 7 10 - - -
28/03:30am - - - - - E 17 20 9 11 - - -
28/03:00am - - - - - E 17 24 9 13 - - -
28/02:30am - - - - - E 15 20 8 11 - - -
28/02:00am - - - - - E 17 20 9 11 - - -
28/01:30am - - - - - E 19 22 10 12 - - -
28/01:00am - - - - - E 20 24 11 13 - - -
28/12:30am - - - - - ENE 19 24 10 13 - - -
28/12:00am - - - - - ENE 19 24 10 13 - - -
 
Date/Time
EDT
Temp
°C
App
Temp
°C
Dew
Point
°C
Rel
Hum
%
Delta-T
°C
Wind Press
QNH
hPa
Press
MSL
hPa
Rain since
9am
mm
Dir  Spd
km/h
Gust
km/h
Spd
kts
Gust
kts
27/11:30pm - - - - - ESE 17 24 9 13 - - -
27/11:00pm - - - - - E 17 22 9 12 - - -
27/10:30pm - - - - - ESE 13 17 7 9 - - -
27/10:00pm - - - - - E 15 19 8 10 - - -
27/09:30pm - - - - - E 15 20 8 11 - - -
27/09:00pm - - - - - ENE 15 19 8 10 - - -
27/08:30pm - - - - - ENE 17 20 9 11 - - -
27/08:00pm - - - - - ENE 13 15 7 8 - - -
27/07:30pm - - - - - ENE 13 17 7 9 - - -
27/07:00pm - - - - - ENE 15 19 8 10 - - -
27/06:30pm - - - - - ENE 15 20 8 11 - - -
27/06:00pm - - - - - ENE 15 20 8 11 - - -
27/05:30pm - - - - - ENE 15 20 8 11 - - -
27/05:00pm - - - - - ENE 17 20 9 11 - - -
27/04:30pm - - - - - ENE 20 24 11 13 - - -
27/04:00pm - - - - - ENE 22 28 12 15 - - -
27/03:30pm - - - - - ENE 22 28 12 15 - - -
27/03:00pm - - - - - ENE 22 28 12 15 - - -
27/02:30pm - - - - - ENE 22 30 12 16 - - -
27/02:00pm - - - - - ENE 22 28 12 15 - - -
27/01:30pm - - - - - ENE 20 26 11 14 - - -
27/01:00pm - - - - - ENE 20 26 11 14 - - -
27/12:30pm - - - - - E 22 28 12 15 - - -
27/12:00pm - - - - - E 22 32 12 17 - - -
27/11:30am - - - - - E 24 37 13 20 - - -
27/11:00am - - - - - E 20 32 11 17 - - -
27/10:30am - - - - - E 22 33 12 18 - - -
27/10:00am - - - - - E 22 33 12 18 - - -
27/09:30am - - - - - E 19 28 10 15 - - -
27/09:00am - - - - - E 15 32 8 17 - - -
27/08:30am - - - - - ENE 11 19 6 10 - - -
27/08:00am - - - - - NNE 13 28 7 15 - - -
27/07:30am - - - - - NNE 15 28 8 15 - - -
27/07:00am - - - - - NNE 13 24 7 13 - - -
27/06:30am - - - - - NNE 15 20 8 11 - - -
27/06:00am - - - - - NE 9 17 5 9 - - -
27/05:30am - - - - - NNE 11 15 6 8 - - -
27/05:00am - - - - - NNE 11 20 6 11 - - -
27/04:30am - - - - - NNE 15 24 8 13 - - -
27/04:00am - - - - - NNE 15 28 8 15 - - -
27/03:30am - - - - - NNE 17 30 9 16 - - -
27/03:00am - - - - - NNE 17 32 9 17 - - -
27/02:30am - - - - - N 19 28 10 15 - - -
27/02:00am - - - - - NNE 19 30 10 16 - - -
27/01:30am - - - - - NNE 17 30 9 16 - - -
27/01:00am - - - - - N 17 26 9 14 - - -
27/12:30am - - - - - NNE 15 24 8 13 - - -
27/12:00am - - - - - NNE 15 28 8 15 - - -
 
Date/Time
EDT
Temp
°C
App
Temp
°C
Dew
Point
°C
Rel
Hum
%
Delta-T
°C
Wind Press
QNH
hPa
Press
MSL
hPa
Rain since
9am
mm
Dir  Spd
km/h
Gust
km/h
Spd
kts
Gust
kts
26/11:30pm - - - - - NNE 17 30 9 16 - - -
26/11:00pm - - - - - NNE 15 22 8 12 - - -
26/10:30pm - - - - - NNE 11 19 6 10 - - -
26/10:00pm - - - - - NNE 17 26 9 14 - - -
26/09:30pm - - - - - NNE 17 28 9 15 - - -
26/09:00pm - - - - - NE 15 26 8 14 - - -
26/08:30pm - - - - - N 19 35 10 19 - - -
26/08:00pm - - - - - NNE 11 22 6 12 - - -
26/07:30pm - - - - - N 17 35 9 19 - - -
26/07:00pm - - - - - NNE 17 33 9 18 - - -
26/06:30pm - - - - - NNE 17 30 9 16 - - -
26/06:00pm - - - - - N 17 41 9 22 - - -
26/05:30pm - - - - - NNE 15 39 8 21 - - -
26/05:00pm - - - - - NE 15 28 8 15 - - -
26/04:30pm - - - - - ENE 15 30 8 16 - - -
26/04:00pm - - - - - ESE 17 28 9 15 - - -
26/03:30pm - - - - - E 17 30 9 16 - - -
26/03:00pm - - - - - N 17 32 9 17 - - -
26/02:30pm - - - - - NNE 19 35 10 19 - - -
26/02:00pm - - - - - NE 13 24 7 13 - - -
26/01:30pm - - - - - NNE 20 33 11 18 - - -
26/01:00pm - - - - - ENE 17 30 9 16 - - -
26/12:30pm - - - - - N 19 32 10 17 - - -
26/12:00pm - - - - - NNE 20 37 11 20 - - -
26/11:30am - - - - - NE 13 22 7 12 - - -
26/11:00am - - - - - NE 13 24 7 13 - - -
26/10:30am - - - - - NNE 17 30 9 16 - - -
26/10:00am - - - - - N 19 32 10 17 - - -
26/09:30am - - - - - NE 13 30 7 16 - - -
26/09:00am - - - - - NNE 17 28 9 15 - - -
26/08:30am - - - - - NNE 19 33 10 18 - - -
26/08:00am - - - - - NE 19 33 10 18 - - -
26/07:30am - - - - - N 17 32 9 17 - - -
26/07:00am - - - - - NNE 15 30 8 16 - - -
26/06:30am - - - - - NNE 15 28 8 15 - - -
26/06:00am - - - - - NE 13 24 7 13 - - -
26/05:30am - - - - - NNE 17 28 9 15 - - -
26/05:00am - - - - - NNE 19 35 10 19 - - -
26/04:30am - - - - - NNE 19 35 10 19 - - -
26/04:00am - - - - - NNE 15 28 8 15 - - -
26/03:30am - - - - - NNE 17 37 9 20 - - -
26/03:00am - - - - - NE 13 26 7 14 - - -

Other formats

Comma delimited format used in spreadsheet applications
http://www.bom.gov.au/fwo/IDN60801/IDN60801.95995.axf

JavaScript Object Notation format (JSON) in row-major order
http://www.bom.gov.au/fwo/IDN60801/IDN60801.95995.json

Data quality

Most of these data are generated automatically and are frequently updated. Quality checks on data are not normally performed. It is possible for incorrect values to appear. Refer to information at About Latest Weather Observations and please check the disclaimer before using these data.